createdAt,value
2022-10-28T00:01:03.784Z,70.65
2022-10-28T00:03:31.905Z,70.75
2022-10-28T00:06:05.012Z,70.39
2022-10-28T00:08:33.676Z,70.58
2022-10-28T00:11:07.035Z,70.65
2022-10-28T00:13:35.503Z,70.07
2022-10-28T00:16:08.968Z,69.54
2022-10-28T00:18:37.467Z,69.69
2022-10-28T00:21:09.136Z,69.94
2022-10-28T00:23:37.115Z,69.58
2022-10-28T00:26:06.976Z,69.73
2022-10-28T00:28:34.989Z,69.47
2022-10-28T00:31:07.426Z,69.16
2022-10-28T00:33:35.487Z,69.28
2022-10-28T00:36:16.420Z,69.19
2022-10-28T00:38:45.779Z,68.92
2022-10-28T00:41:16.141Z,68.92
2022-10-28T00:43:46.324Z,68.64
2022-10-28T00:46:20.677Z,68.57
2022-10-28T00:48:53.125Z,68.76
2022-10-28T00:51:25.284Z,68.74
2022-10-28T00:53:56.011Z,69.06
2022-10-28T00:56:27.478Z,68.03
2022-10-28T00:58:58.999Z,67.96
2022-10-28T01:01:27.084Z,68.32
2022-10-28T01:03:56.873Z,68.15
2022-10-28T01:06:29.063Z,67.98
2022-10-28T01:08:59.924Z,68.03
2022-10-28T01:11:43.287Z,67.99
2022-10-28T01:14:31.077Z,67.96
2022-10-28T01:17:18.458Z,67.72
2022-10-28T01:20:39.677Z,67.83
2022-10-28T01:23:17.342Z,66.62
2022-10-28T01:26:04.356Z,67.40
2022-10-28T01:29:03.431Z,67.53
2022-10-28T01:31:40.100Z,67.01
2022-10-28T01:34:15.116Z,66.47
2022-10-28T01:36:53.990Z,66.93
2022-10-28T01:39:29.985Z,66.77
2022-10-28T01:42:08.676Z,67.03
2022-10-28T01:44:46.429Z,67.07
2022-10-28T01:47:20.806Z,66.77
2022-10-28T01:49:52.210Z,66.78
2022-10-28T01:52:24.540Z,66.73
2022-10-28T01:55:02.403Z,67.03
2022-10-28T01:57:32.983Z,66.56
2022-10-28T02:00:02.775Z,66.44
2022-10-28T02:02:42.654Z,66.98
2022-10-28T02:05:39.268Z,66.84
2022-10-28T02:08:34.693Z,66.27
2022-10-28T02:11:17.049Z,66.31
2022-10-28T02:13:52.971Z,66.38
2022-10-28T02:16:29.209Z,66.64
2022-10-28T02:19:04.655Z,66.64
2022-10-28T02:21:44.643Z,66.14
2022-10-28T02:24:19.818Z,65.79
2022-10-28T02:26:54.998Z,65.98
2022-10-28T02:29:31.703Z,65.70
2022-10-28T02:32:04.112Z,65.27
2022-10-28T02:34:37.551Z,65.91
2022-10-28T02:37:12.454Z,65.70
2022-10-28T02:39:44.223Z,65.41
2022-10-28T02:42:16.531Z,65.67
2022-10-28T02:44:49.694Z,64.81
2022-10-28T02:47:21.831Z,65.18
2022-10-28T02:49:56.389Z,64.60
2022-10-28T02:52:29.532Z,64.93
2022-10-28T02:55:00.422Z,65.35
2022-10-28T02:57:32.447Z,65.40
2022-10-28T03:00:02.327Z,65.24
2022-10-28T03:02:30.281Z,65.73
2022-10-28T03:04:59.520Z,65.63
2022-10-28T03:07:27.481Z,65.38
2022-10-28T03:09:55.567Z,65.25
2022-10-28T03:12:23.562Z,65.01
2022-10-28T03:14:51.546Z,65.30
2022-10-28T03:17:19.511Z,65.80
2022-10-28T03:19:47.378Z,65.89
2022-10-28T03:22:16.893Z,66.53
2022-10-28T03:24:44.768Z,66.54
2022-10-28T03:27:13.995Z,67.00
2022-10-28T03:29:45.010Z,67.15
2022-10-28T03:32:14.506Z,67.34
2022-10-28T03:34:42.463Z,68.03
2022-10-28T03:37:10.732Z,68.22
2022-10-28T03:39:40.390Z,68.36
2022-10-28T03:42:08.362Z,67.86
2022-10-28T03:44:36.244Z,68.56
2022-10-28T03:47:04.262Z,68.45
2022-10-28T03:49:32.155Z,68.08
2022-10-28T03:52:00.089Z,68.63
2022-10-28T03:54:27.889Z,68.62
2022-10-28T03:56:57.140Z,68.86
2022-10-28T03:59:25.131Z,68.46
2022-10-28T04:01:53.118Z,68.46
2022-10-28T04:04:21.489Z,68.58
2022-10-28T04:06:49.361Z,68.72
2022-10-28T04:09:17.245Z,68.86
2022-10-28T04:11:45.277Z,68.69
2022-10-28T04:14:14.690Z,69.13
2022-10-28T04:16:42.552Z,68.93
2022-10-28T04:19:10.472Z,68.85
2022-10-28T04:21:38.372Z,69.38
2022-10-28T04:24:07.186Z,69.49
2022-10-28T04:26:35.203Z,68.90
2022-10-28T04:29:03.072Z,68.79
2022-10-28T04:31:32.369Z,69.59
2022-10-28T04:34:00.279Z,69.45
2022-10-28T04:36:28.085Z,69.68
2022-10-28T04:38:56.086Z,69.50
2022-10-28T04:41:23.977Z,69.62
2022-10-28T04:43:51.800Z,69.60
2022-10-28T04:46:19.640Z,70.01
2022-10-28T04:48:49.380Z,69.98
2022-10-28T04:51:17.431Z,70.12
2022-10-28T04:53:45.451Z,70.30
2022-10-28T04:56:13.416Z,70.29
2022-10-28T04:58:42.259Z,70.24
2022-10-28T05:01:11.860Z,70.29
2022-10-28T05:03:40.057Z,70.61
2022-10-28T05:06:09.420Z,70.81
2022-10-28T05:08:37.315Z,70.45
2022-10-28T05:11:05.392Z,70.91
2022-10-28T05:13:33.634Z,70.90
2022-10-28T05:16:01.798Z,70.82
2022-10-28T05:18:29.698Z,71.28
2022-10-28T05:20:57.641Z,70.66
2022-10-28T05:23:27.323Z,71.14
2022-10-28T05:25:58.120Z,71.25
2022-10-28T05:28:26.091Z,71.03
2022-10-28T05:30:54.012Z,71.13
2022-10-28T05:33:21.937Z,71.09
2022-10-28T05:35:49.909Z,71.56
2022-10-28T05:38:18.038Z,71.31
2022-10-28T05:40:47.406Z,71.50
2022-10-28T05:43:15.365Z,72.00
2022-10-28T05:45:43.224Z,72.13
2022-10-28T05:48:11.102Z,71.94
2022-10-28T05:50:38.963Z,72.16
2022-10-28T05:53:06.793Z,72.25
2022-10-28T05:55:35.296Z,72.12
2022-10-28T05:58:04.527Z,72.25
2022-10-28T06:00:33.031Z,72.06
2022-10-28T06:03:09.148Z,71.70
2022-10-28T06:05:37.292Z,71.84
2022-10-28T06:08:06.220Z,71.97
2022-10-28T06:10:34.577Z,71.88
2022-10-28T06:13:02.234Z,71.91
2022-10-28T06:15:30.302Z,72.33
2022-10-28T06:17:58.360Z,71.94
2022-10-28T06:20:26.460Z,72.09
2022-10-28T06:22:55.465Z,72.05
2022-10-28T06:25:25.600Z,72.43
2022-10-28T06:27:54.625Z,72.25
2022-10-28T06:30:25.265Z,72.42
2022-10-28T06:32:56.472Z,72.36
2022-10-28T06:35:24.324Z,72.57
2022-10-28T06:37:53.958Z,72.77
2022-10-28T06:40:22.210Z,72.47
2022-10-28T06:42:56.816Z,72.82
2022-10-28T06:45:26.481Z,72.57
2022-10-28T06:47:57.441Z,72.64
2022-10-28T06:50:25.417Z,72.28
2022-10-28T06:52:53.743Z,71.43
2022-10-28T06:55:21.591Z,71.27
2022-10-28T06:57:49.528Z,71.41
2022-10-28T07:00:17.966Z,71.46
2022-10-28T07:02:51.877Z,70.78
2022-10-28T07:05:19.981Z,70.88
2022-10-28T07:07:47.839Z,71.12
2022-10-28T07:10:16.173Z,71.06
2022-10-28T07:12:44.091Z,71.21
2022-10-28T07:15:12.564Z,71.24
2022-10-28T07:17:40.554Z,71.37
2022-10-28T07:20:11.464Z,72.01
2022-10-28T07:22:39.305Z,72.26
2022-10-28T07:25:08.225Z,71.83
2022-10-28T07:27:36.191Z,71.44
2022-10-28T07:30:04.146Z,71.53
2022-10-28T07:32:32.874Z,71.45
2022-10-28T07:35:00.704Z,70.78
2022-10-28T07:37:31.073Z,71.27
2022-10-28T07:39:58.935Z,70.48
2022-10-28T07:42:26.954Z,70.46
2022-10-28T07:44:54.736Z,70.35
2022-10-28T07:47:22.574Z,69.82
2022-10-28T07:49:50.387Z,69.85
2022-10-28T07:52:18.465Z,69.72
2022-10-28T07:54:47.922Z,69.68
2022-10-28T07:57:15.717Z,69.68
2022-10-28T07:59:43.509Z,69.30
2022-10-28T08:02:17.517Z,69.21
2022-10-28T08:04:45.575Z,69.56
2022-10-28T08:07:14.016Z,69.31
2022-10-28T08:09:42.291Z,69.19
2022-10-28T08:12:14.717Z,68.90
2022-10-28T08:14:43.238Z,68.76
2022-10-28T08:17:11.142Z,68.73
2022-10-28T08:19:38.948Z,69.36
2022-10-28T08:22:07.739Z,68.72
2022-10-28T08:24:36.576Z,68.33
2022-10-28T08:27:04.591Z,67.53
2022-10-28T08:29:33.912Z,66.08
2022-10-28T08:32:01.888Z,65.62
2022-10-28T08:34:30.941Z,65.03
2022-10-28T08:36:58.968Z,63.87
2022-10-28T08:39:26.794Z,61.71
2022-10-28T08:42:08.820Z,62.82
2022-10-28T08:44:57.947Z,63.22
2022-10-28T08:47:39.308Z,63.46
2022-10-28T08:50:14.299Z,62.34
2022-10-28T08:52:48.727Z,62.46
2022-10-28T08:55:21.881Z,61.24
2022-10-28T08:57:53.890Z,57.99
2022-10-28T09:00:25.523Z,57.01
2022-10-28T09:03:18.276Z,57.17
2022-10-28T09:05:49.953Z,53.65
2022-10-28T09:08:24.505Z,52.74
2022-10-28T09:11:04.619Z,50.59
2022-10-28T09:13:47.111Z,45.98
2022-10-28T09:16:30.605Z,42.84
2022-10-28T09:19:04.054Z,42.37
2022-10-28T09:21:37.656Z,41.07
2022-10-28T09:24:18.571Z,41.88
2022-10-28T09:26:55.445Z,38.22
2022-10-28T09:29:54.890Z,38.66
2022-10-28T09:32:35.131Z,37.13
2022-10-28T09:35:07.344Z,35.27
2022-10-28T09:37:40.923Z,36.66
2022-10-28T09:40:18.550Z,37.02
2022-10-28T09:42:56.173Z,38.02
2022-10-28T09:45:32.521Z,37.23
2022-10-28T09:48:09.730Z,35.09
2022-10-28T09:50:40.627Z,36.53
2022-10-28T09:53:20.567Z,36.29
2022-10-28T09:55:55.937Z,33.98
2022-10-28T09:58:30.006Z,34.78
2022-10-28T10:01:00.420Z,36.28
2022-10-28T10:03:32.973Z,37.91
2022-10-28T10:06:15.189Z,39.11
2022-10-28T10:08:44.608Z,37.81
2022-10-28T10:11:23.388Z,35.56
2022-10-28T10:13:52.707Z,33.42
2022-10-28T10:16:26.100Z,31.78
2022-10-28T10:19:01.894Z,31.55
2022-10-28T10:21:45.621Z,32.18
2022-10-28T10:24:27.091Z,33.65
2022-10-28T10:26:55.470Z,30.74
2022-10-28T10:29:23.642Z,29.25
2022-10-28T10:32:09.834Z,28.05
2022-10-28T10:34:39.149Z,24.80
2022-10-28T10:37:17.444Z,24.81
2022-10-28T10:39:45.209Z,24.72
2022-10-28T10:42:17.971Z,26.51
2022-10-28T10:44:46.246Z,27.90
2022-10-28T10:47:20.867Z,30.42
2022-10-28T10:50:22.968Z,32.01
2022-10-28T10:52:53.806Z,33.39
2022-10-28T10:55:30.465Z,34.98
2022-10-28T10:57:58.891Z,36.23
2022-10-28T11:00:32.119Z,37.60
2022-10-28T11:03:01.956Z,37.28
2022-10-28T11:05:35.913Z,37.32
2022-10-28T11:08:07.731Z,36.26
2022-10-28T11:10:36.356Z,35.67
2022-10-28T11:13:26.602Z,33.23
2022-10-28T11:16:00.687Z,32.08
2022-10-28T11:18:31.650Z,31.20
2022-10-28T11:21:08.510Z,31.89
2022-10-28T11:23:50.192Z,31.01
2022-10-28T11:26:20.512Z,30.29
2022-10-28T11:29:10.883Z,30.07
2022-10-28T11:31:57.665Z,26.39
2022-10-28T11:34:41.621Z,23.74
2022-10-28T11:37:19.891Z,22.40
2022-10-28T11:39:59.390Z,22.16
2022-10-28T11:42:39.051Z,22.00
2022-10-28T11:45:14.520Z,22.78
2022-10-28T11:47:57.119Z,23.41
2022-10-28T11:50:36.609Z,24.66
2022-10-28T11:53:28.832Z,27.67
2022-10-28T11:56:04.664Z,29.60
2022-10-28T11:58:42.157Z,30.21
2022-10-28T12:01:29.799Z,29.06
2022-10-28T12:04:13.348Z,29.27
2022-10-28T12:07:01.441Z,29.75
2022-10-28T12:09:45.698Z,29.85
2022-10-28T12:12:24.413Z,28.55
2022-10-28T12:15:01.592Z,27.29
2022-10-28T12:17:38.247Z,27.29
2022-10-28T12:20:15.897Z,27.01
2022-10-28T12:22:49.122Z,25.89
2022-10-28T12:25:24.292Z,24.63
2022-10-28T12:27:55.644Z,23.51
2022-10-28T12:30:27.350Z,22.91
2022-10-28T12:33:00.200Z,22.47
2022-10-28T12:35:33.166Z,22.98
2022-10-28T12:38:07.503Z,24.50
2022-10-28T12:40:42.588Z,26.10
2022-10-28T12:43:17.131Z,27.84
2022-10-28T12:45:49.272Z,28.28
2022-10-28T12:48:23.682Z,29.91
2022-10-28T12:51:00.083Z,30.95
2022-10-28T12:53:35.556Z,32.49
2022-10-28T12:56:13.207Z,34.78
2022-10-28T12:58:52.277Z,37.05
2022-10-28T13:01:24.340Z,37.25
2022-10-28T13:03:52.843Z,38.99
2022-10-28T13:06:48.688Z,38.83
2022-10-28T13:09:39.156Z,38.69
2022-10-28T13:12:50.551Z,38.42
2022-10-28T13:15:40.249Z,36.91
2022-10-28T13:18:38.212Z,37.96
2022-10-28T13:21:17.812Z,37.39
2022-10-28T13:23:55.686Z,38.96
2022-10-28T13:26:29.675Z,38.77
2022-10-28T13:29:00.848Z,38.78
2022-10-28T13:31:41.125Z,40.28
2022-10-28T13:34:10.558Z,39.34
2022-10-28T13:36:42.827Z,41.83
2022-10-28T13:39:24.562Z,41.43
2022-10-28T13:42:25.607Z,44.36
2022-10-28T13:44:55.370Z,46.06
2022-10-28T13:47:34.445Z,43.22
2022-10-28T13:50:42.117Z,42.55
2022-10-28T13:53:55.289Z,44.93
2022-10-28T13:56:42.472Z,46.00
2022-10-28T13:59:22.639Z,47.39
2022-10-28T14:02:28.476Z,48.55
2022-10-28T14:04:58.656Z,49.84
2022-10-28T14:07:30.205Z,49.68
2022-10-28T14:10:17.614Z,50.11
2022-10-28T14:12:51.724Z,50.79
2022-10-28T14:15:24.294Z,51.29
2022-10-28T14:18:00.994Z,47.76
2022-10-28T14:20:54.851Z,49.09
2022-10-28T14:24:16.600Z,50.88
2022-10-28T14:27:30.758Z,52.20
2022-10-28T14:30:24.167Z,52.06
2022-10-28T14:33:04.111Z,52.91
2022-10-28T14:35:40.243Z,52.84
2022-10-28T14:38:42.039Z,52.77
2022-10-28T14:41:35.580Z,53.61
2022-10-28T14:44:17.348Z,54.36
2022-10-28T14:46:57.294Z,54.28
2022-10-28T14:49:27.343Z,53.37
2022-10-28T14:51:56.074Z,53.82
2022-10-28T14:54:39.792Z,52.90
2022-10-28T14:57:11.394Z,52.87
2022-10-28T14:59:43.200Z,53.15
2022-10-28T15:02:17.559Z,54.25
2022-10-28T15:04:48.414Z,53.96
2022-10-28T15:07:19.325Z,54.29
2022-10-28T15:09:53.455Z,55.63
2022-10-28T15:12:26.664Z,55.77
2022-10-28T15:14:56.448Z,55.04
2022-10-28T15:17:26.363Z,55.02
2022-10-28T15:19:56.073Z,53.84
2022-10-28T15:22:25.785Z,53.53
2022-10-28T15:24:59.256Z,55.48
2022-10-28T15:27:30.470Z,56.13
2022-10-28T15:29:58.589Z,57.61
2022-10-28T15:32:29.653Z,57.97
2022-10-28T15:34:57.714Z,58.29
2022-10-28T15:37:27.932Z,58.69
2022-10-28T15:40:13.717Z,58.60
2022-10-28T15:42:51.362Z,59.42
2022-10-28T15:45:25.583Z,59.83
2022-10-28T15:47:55.342Z,60.14
2022-10-28T15:50:32.995Z,60.64
2022-10-28T15:53:37.722Z,60.15
2022-10-28T15:56:17.639Z,61.64
2022-10-28T15:58:49.993Z,62.03
2022-10-28T16:01:37.978Z,62.11
2022-10-28T16:04:06.706Z,62.61
2022-10-28T16:06:37.243Z,62.74
2022-10-28T16:09:18.206Z,62.42
2022-10-28T16:11:49.305Z,63.17
2022-10-28T16:14:36.827Z,62.88
2022-10-28T16:19:38.744Z,63.70
2022-10-28T16:22:07.509Z,63.88
2022-10-28T16:24:35.660Z,64.03
2022-10-28T16:27:22.942Z,63.45
2022-10-28T16:29:52.765Z,64.30
2022-10-28T16:32:27.690Z,64.57
2022-10-28T16:34:56.994Z,64.79
2022-10-28T16:37:27.583Z,64.81
2022-10-28T16:39:57.670Z,64.91
2022-10-28T16:42:26.177Z,64.95
2022-10-28T16:44:55.454Z,65.21
2022-10-28T16:47:26.598Z,65.34
2022-10-28T16:49:57.362Z,65.48
2022-10-28T16:52:27.511Z,65.46
2022-10-28T16:54:55.753Z,65.41
2022-10-28T16:59:52.158Z,66.11
2022-10-28T17:02:25.449Z,66.43
2022-10-28T17:04:53.601Z,66.36
2022-10-28T17:07:21.507Z,66.19
2022-10-28T17:09:49.390Z,66.67
2022-10-28T17:12:19.230Z,66.34
2022-10-28T17:14:47.318Z,66.59
2022-10-28T17:17:16.089Z,66.63
2022-10-28T17:19:46.477Z,66.63
2022-10-28T17:22:15.173Z,66.91
2022-10-28T17:24:43.110Z,66.60
2022-10-28T17:27:10.915Z,67.30
2022-10-28T17:29:38.939Z,67.32
2022-10-28T17:32:08.572Z,66.94
2022-10-28T17:34:36.579Z,67.20
2022-10-28T17:37:06.034Z,67.26
2022-10-28T17:39:34.083Z,67.60
2022-10-28T17:42:01.928Z,67.53
2022-10-28T17:44:29.750Z,67.70
2022-10-28T17:46:58.366Z,67.34
2022-10-28T17:49:26.406Z,67.54
2022-10-28T17:51:54.676Z,67.59
2022-10-28T17:56:51.926Z,68.25
2022-10-28T17:59:19.849Z,68.16
2022-10-28T18:01:47.804Z,68.37
2022-10-28T18:04:15.858Z,68.09
2022-10-28T18:06:43.879Z,68.39
2022-10-28T18:09:12.728Z,68.33
2022-10-28T18:11:42.048Z,68.32
2022-10-28T18:14:09.869Z,68.91
2022-10-28T18:16:38.437Z,68.71
2022-10-28T18:19:07.711Z,69.25
2022-10-28T18:21:36.112Z,69.32
2022-10-28T18:24:07.196Z,69.51
2022-10-28T18:26:36.763Z,69.28
2022-10-28T18:29:09.881Z,69.74
2022-10-28T18:31:40.510Z,69.91
2022-10-28T18:34:09.493Z,69.64
2022-10-28T18:36:37.912Z,69.83
2022-10-28T18:39:07.785Z,70.01
2022-10-28T18:41:38.327Z,69.91
2022-10-28T18:44:07.577Z,70.31
2022-10-28T18:46:37.513Z,70.51
2022-10-28T18:49:06.228Z,70.82
2022-10-28T18:51:35.180Z,70.40
2022-10-28T18:54:03.547Z,70.85
2022-10-28T18:56:31.662Z,70.85
2022-10-28T18:58:59.984Z,70.65
2022-10-28T19:01:31.603Z,70.71
2022-10-28T19:04:01.598Z,70.54
2022-10-28T19:06:32.434Z,70.70
2022-10-28T19:09:02.610Z,70.85
2022-10-28T19:11:31.679Z,70.75
2022-10-28T19:14:00.474Z,70.94
2022-10-28T19:16:31.881Z,70.65
2022-10-28T19:19:02.482Z,70.86
2022-10-28T19:21:30.438Z,71.12
2022-10-28T19:23:58.276Z,71.27
2022-10-28T19:26:26.192Z,71.27
2022-10-28T19:28:54.170Z,71.34
2022-10-28T19:31:24.891Z,71.68
2022-10-28T19:33:55.163Z,71.23
2022-10-28T19:36:25.015Z,71.54
2022-10-28T19:38:54.364Z,71.59
2022-10-28T19:41:24.488Z,71.87
2022-10-28T19:43:57.842Z,71.94
2022-10-28T19:46:27.710Z,71.98
2022-10-28T19:48:59.529Z,71.97
2022-10-28T19:51:29.330Z,72.17
2022-10-28T19:53:58.593Z,71.69
2022-10-28T19:56:27.416Z,72.05
2022-10-28T19:58:57.760Z,71.63
2022-10-28T20:01:28.735Z,71.92
2022-10-28T20:03:58.228Z,72.25
2022-10-28T20:06:27.991Z,72.35
2022-10-28T20:08:55.829Z,72.54
2022-10-28T20:11:26.604Z,72.14
2022-10-28T20:13:55.275Z,71.95
2022-10-28T20:16:23.788Z,72.09
2022-10-28T20:18:51.776Z,72.46
2022-10-28T20:21:22.939Z,72.34
2022-10-28T20:23:54.572Z,72.80
2022-10-28T20:26:24.473Z,73.01
2022-10-28T20:28:52.679Z,73.02
2022-10-28T20:31:22.362Z,73.17
2022-10-28T20:33:52.788Z,72.69
2022-10-28T20:36:25.513Z,72.50
2022-10-28T20:38:57.590Z,72.69
2022-10-28T20:41:26.604Z,72.89
2022-10-28T20:43:55.437Z,72.66
2022-10-28T20:46:25.614Z,73.07
2022-10-28T20:48:54.596Z,73.28
2022-10-28T20:51:25.714Z,72.93
2022-10-28T20:53:54.539Z,72.77
2022-10-28T20:56:24.387Z,73.00
2022-10-28T20:58:53.041Z,72.88
2022-10-28T21:01:22.995Z,72.82
2022-10-28T21:03:54.877Z,73.14
2022-10-28T21:06:25.614Z,73.32
2022-10-28T21:08:54.570Z,72.77
2022-10-28T21:11:23.899Z,72.89
2022-10-28T21:13:53.545Z,73.26
2022-10-28T21:16:22.905Z,73.26
2022-10-28T21:18:51.610Z,73.10
2022-10-28T21:21:20.271Z,73.05
2022-10-28T21:23:49.881Z,73.37
2022-10-28T21:26:18.038Z,73.23
2022-10-28T21:28:49.873Z,73.81
2022-10-28T21:31:18.785Z,73.71
2022-10-28T21:33:47.465Z,73.45
2022-10-28T21:36:17.282Z,73.40
2022-10-28T21:38:46.184Z,73.36
2022-10-28T21:41:17.140Z,73.60
2022-10-28T21:43:47.673Z,73.96
2022-10-28T21:46:16.093Z,73.71
2022-10-28T21:48:46.770Z,73.63
2022-10-28T21:51:16.946Z,73.76
2022-10-28T21:53:45.785Z,73.82
2022-10-28T21:56:18.776Z,74.00
2022-10-28T21:58:49.061Z,73.60
2022-10-28T22:01:19.008Z,73.93
2022-10-28T22:03:46.907Z,73.99
2022-10-28T22:06:15.240Z,73.97
2022-10-28T22:08:43.143Z,73.87
2022-10-28T22:11:13.607Z,74.34
2022-10-28T22:13:43.087Z,74.43
2022-10-28T22:16:15.359Z,73.83
2022-10-28T22:18:44.535Z,74.37
2022-10-28T22:21:14.907Z,74.43
2022-10-28T22:23:43.452Z,74.14
2022-10-28T22:26:13.739Z,74.41
2022-10-28T22:28:43.654Z,74.44
2022-10-28T22:31:13.471Z,74.50
2022-10-28T22:33:41.544Z,74.15
2022-10-28T22:36:13.295Z,74.38
2022-10-28T22:38:41.890Z,74.11
2022-10-28T22:41:14.288Z,74.74
2022-10-28T22:43:45.118Z,74.87
2022-10-28T22:46:14.888Z,74.68
2022-10-28T22:48:42.736Z,75.10
2022-10-28T22:51:11.181Z,74.92
2022-10-28T22:53:39.848Z,74.95
2022-10-28T22:56:09.443Z,75.13
2022-10-28T22:58:37.551Z,75.17
2022-10-28T23:01:07.939Z,74.83
2022-10-28T23:03:37.000Z,75.01
2022-10-28T23:06:05.479Z,74.91
2022-10-28T23:08:33.705Z,74.86
2022-10-28T23:11:01.702Z,75.02
2022-10-28T23:13:29.570Z,74.60
2022-10-28T23:15:57.459Z,74.87
2022-10-28T23:18:28.910Z,74.51
2022-10-28T23:20:56.750Z,74.69
2022-10-28T23:23:24.715Z,75.00
2022-10-28T23:25:53.629Z,74.85
2022-10-28T23:28:21.795Z,74.60
2022-10-28T23:30:49.655Z,74.70
2022-10-28T23:33:17.540Z,74.94
2022-10-28T23:35:54.995Z,74.56
2022-10-28T23:38:23.015Z,74.87
2022-10-28T23:40:58.386Z,74.99
2022-10-28T23:43:26.879Z,75.17
2022-10-28T23:45:55.815Z,75.21
2022-10-28T23:48:24.254Z,75.55
2022-10-28T23:50:53.878Z,75.76
2022-10-28T23:53:22.707Z,75.21
2022-10-28T23:55:51.607Z,75.14
2022-10-28T23:58:20.958Z,74.97
